sensor_id;sensor_type;location;lat;lon;timestamp;P1;durP1;ratioP1;P2;durP2;ratioP2
19285;SDS011;9776;50.798;6.430;2022-08-03T00:02:10;1.38;;;1.27;;
19285;SDS011;9776;50.798;6.430;2022-08-03T00:04:38;1.00;;;1.00;;
19285;SDS011;9776;50.798;6.430;2022-08-03T00:07:05;1.27;;;1.27;;
19285;SDS011;9776;50.798;6.430;2022-08-03T00:09:32;1.30;;;1.20;;
19285;SDS011;9776;50.798;6.430;2022-08-03T00:11:59;1.10;;;1.10;;
19285;SDS011;9776;50.798;6.430;2022-08-03T00:14:25;1.10;;;1.10;;
19285;SDS011;9776;50.798;6.430;2022-08-03T00:16:52;1.17;;;1.17;;
19285;SDS011;9776;50.798;6.430;2022-08-03T00:19:19;1.20;;;1.10;;
19285;SDS011;9776;50.798;6.430;2022-08-03T00:21:47;0.90;;;0.90;;
19285;SDS011;9776;50.798;6.430;2022-08-03T00:24:13;1.20;;;1.20;;
19285;SDS011;9776;50.798;6.430;2022-08-03T00:26:40;1.40;;;1.10;;
19285;SDS011;9776;50.798;6.430;2022-08-03T00:29:07;1.10;;;1.10;;
19285;SDS011;9776;50.798;6.430;2022-08-03T00:31:33;1.10;;;1.10;;
19285;SDS011;9776;50.798;6.430;2022-08-03T00:34:00;1.42;;;1.23;;
19285;SDS011;9776;50.798;6.430;2022-08-03T00:36:27;2.05;;;1.27;;
19285;SDS011;9776;50.798;6.430;2022-08-03T00:38:55;0.93;;;0.93;;
19285;SDS011;9776;50.798;6.430;2022-08-03T00:41:22;1.00;;;1.00;;
19285;SDS011;9776;50.798;6.430;2022-08-03T00:43:49;1.05;;;1.05;;
19285;SDS011;9776;50.798;6.430;2022-08-03T00:46:15;1.00;;;1.00;;
19285;SDS011;9776;50.798;6.430;2022-08-03T00:48:42;1.50;;;1.35;;
19285;SDS011;9776;50.798;6.430;2022-08-03T00:51:09;1.48;;;1.38;;
19285;SDS011;9776;50.798;6.430;2022-08-03T00:53:35;1.20;;;1.20;;
19285;SDS011;9776;50.798;6.430;2022-08-03T00:56:04;1.10;;;1.10;;
19285;SDS011;9776;50.798;6.430;2022-08-03T00:58:31;0.90;;;0.90;;
19285;SDS011;9776;50.798;6.430;2022-08-03T01:00:58;1.23;;;1.23;;
19285;SDS011;9776;50.798;6.430;2022-08-03T01:03:24;1.50;;;1.40;;
19285;SDS011;9776;50.798;6.430;2022-08-03T01:05:52;1.20;;;1.20;;
19285;SDS011;9776;50.798;6.430;2022-08-03T01:08:26;1.20;;;1.20;;
19285;SDS011;9776;50.798;6.430;2022-08-03T01:11:04;2.15;;;1.10;;
19285;SDS011;9776;50.798;6.430;2022-08-03T01:13:36;2.25;;;1.52;;
19285;SDS011;9776;50.798;6.430;2022-08-03T01:16:17;1.33;;;1.30;;
19285;SDS011;9776;50.798;6.430;2022-08-03T01:18:50;1.23;;;1.20;;
19285;SDS011;9776;50.798;6.430;2022-08-03T01:21:24;1.60;;;1.50;;
19285;SDS011;9776;50.798;6.430;2022-08-03T01:24:00;1.48;;;1.40;;
19285;SDS011;9776;50.798;6.430;2022-08-03T01:26:50;2.08;;;1.40;;
19285;SDS011;9776;50.798;6.430;2022-08-03T01:32:25;1.60;;;1.50;;
19285;SDS011;9776;50.798;6.430;2022-08-03T01:35:00;1.52;;;1.42;;
19285;SDS011;9776;50.798;6.430;2022-08-03T01:37:31;1.67;;;1.58;;
19285;SDS011;9776;50.798;6.430;2022-08-03T01:40:04;1.55;;;1.40;;
19285;SDS011;9776;50.798;6.430;2022-08-03T01:42:33;1.52;;;1.50;;
19285;SDS011;9776;50.798;6.430;2022-08-03T01:45:03;1.52;;;1.42;;
19285;SDS011;9776;50.798;6.430;2022-08-03T01:47:32;1.70;;;1.60;;
19285;SDS011;9776;50.798;6.430;2022-08-03T01:50:01;1.60;;;1.50;;
19285;SDS011;9776;50.798;6.430;2022-08-03T01:52:29;1.52;;;1.42;;
19285;SDS011;9776;50.798;6.430;2022-08-03T01:54:58;1.50;;;1.40;;
19285;SDS011;9776;50.798;6.430;2022-08-03T01:57:28;1.65;;;1.55;;
19285;SDS011;9776;50.798;6.430;2022-08-03T01:59:56;1.30;;;1.30;;
19285;SDS011;9776;50.798;6.430;2022-08-03T02:02:26;1.80;;;1.70;;
19285;SDS011;9776;50.798;6.430;2022-08-03T02:04:55;1.60;;;1.50;;
19285;SDS011;9776;50.798;6.430;2022-08-03T02:07:24;3.42;;;1.60;;
19285;SDS011;9776;50.798;6.430;2022-08-03T02:09:53;1.55;;;1.45;;
19285;SDS011;9776;50.798;6.430;2022-08-03T02:12:21;1.77;;;1.67;;
19285;SDS011;9776;50.798;6.430;2022-08-03T02:14:50;2.17;;;2.08;;
19285;SDS011;9776;50.798;6.430;2022-08-03T02:17:17;1.70;;;1.60;;
19285;SDS011;9776;50.798;6.430;2022-08-03T02:19:46;1.98;;;1.88;;
19285;SDS011;9776;50.798;6.430;2022-08-03T02:22:14;1.70;;;1.60;;
19285;SDS011;9776;50.798;6.430;2022-08-03T02:24:41;1.70;;;1.60;;
19285;SDS011;9776;50.798;6.430;2022-08-03T02:27:09;1.90;;;1.80;;
19285;SDS011;9776;50.798;6.430;2022-08-03T02:29:44;1.73;;;1.63;;
19285;SDS011;9776;50.798;6.430;2022-08-03T02:32:16;1.60;;;1.50;;
19285;SDS011;9776;50.798;6.430;2022-08-03T02:34:47;1.50;;;1.38;;
19285;SDS011;9776;50.798;6.430;2022-08-03T02:37:19;1.67;;;1.58;;
19285;SDS011;9776;50.798;6.430;2022-08-03T02:39:49;1.70;;;1.60;;
19285;SDS011;9776;50.798;6.430;2022-08-03T02:42:19;1.98;;;1.88;;
19285;SDS011;9776;50.798;6.430;2022-08-03T02:44:48;1.50;;;1.40;;
19285;SDS011;9776;50.798;6.430;2022-08-03T02:47:18;1.67;;;1.58;;
19285;SDS011;9776;50.798;6.430;2022-08-03T02:49:48;1.80;;;1.70;;
19285;SDS011;9776;50.798;6.430;2022-08-03T02:52:17;1.50;;;1.40;;
19285;SDS011;9776;50.798;6.430;2022-08-03T02:54:47;1.25;;;1.25;;
19285;SDS011;9776;50.798;6.430;2022-08-03T02:57:16;1.65;;;1.55;;
19285;SDS011;9776;50.798;6.430;2022-08-03T02:59:45;1.83;;;1.73;;
19285;SDS011;9776;50.798;6.430;2022-08-03T03:02:13;1.42;;;1.33;;
19285;SDS011;9776;50.798;6.430;2022-08-03T03:04:42;2.10;;;1.60;;
19285;SDS011;9776;50.798;6.430;2022-08-03T03:07:11;1.55;;;1.45;;
19285;SDS011;9776;50.798;6.430;2022-08-03T03:09:39;1.50;;;1.40;;
19285;SDS011;9776;50.798;6.430;2022-08-03T03:12:08;1.13;;;1.10;;
19285;SDS011;9776;50.798;6.430;2022-08-03T03:14:36;1.50;;;1.40;;
19285;SDS011;9776;50.798;6.430;2022-08-03T03:17:04;1.65;;;1.55;;
19285;SDS011;9776;50.798;6.430;2022-08-03T03:19:32;1.40;;;1.30;;
19285;SDS011;9776;50.798;6.430;2022-08-03T03:22:00;1.67;;;1.58;;
19285;SDS011;9776;50.798;6.430;2022-08-03T03:24:29;1.35;;;1.25;;
19285;SDS011;9776;50.798;6.430;2022-08-03T03:26:56;1.50;;;1.40;;
19285;SDS011;9776;50.798;6.430;2022-08-03T03:29:23;1.70;;;1.60;;
19285;SDS011;9776;50.798;6.430;2022-08-03T03:31:50;1.25;;;1.15;;
19285;SDS011;9776;50.798;6.430;2022-08-03T03:34:17;1.60;;;1.50;;
19285;SDS011;9776;50.798;6.430;2022-08-03T03:36:44;1.50;;;1.40;;
19285;SDS011;9776;50.798;6.430;2022-08-03T03:39:11;1.48;;;1.38;;
19285;SDS011;9776;50.798;6.430;2022-08-03T03:41:39;1.40;;;1.40;;
19285;SDS011;9776;50.798;6.430;2022-08-03T03:44:06;1.60;;;1.50;;
19285;SDS011;9776;50.798;6.430;2022-08-03T03:46:33;1.70;;;1.55;;
19285;SDS011;9776;50.798;6.430;2022-08-03T03:49:00;1.30;;;1.30;;
19285;SDS011;9776;50.798;6.430;2022-08-03T03:51:26;1.50;;;1.40;;
19285;SDS011;9776;50.798;6.430;2022-08-03T03:53:54;1.48;;;1.38;;
19285;SDS011;9776;50.798;6.430;2022-08-03T03:56:21;1.38;;;1.27;;
19285;SDS011;9776;50.798;6.430;2022-08-03T03:58:49;1.92;;;1.40;;
19285;SDS011;9776;50.798;6.430;2022-08-03T04:01:17;1.38;;;1.30;;
19285;SDS011;9776;50.798;6.430;2022-08-03T04:03:44;1.40;;;1.30;;
19285;SDS011;9776;50.798;6.430;2022-08-03T04:06:11;1.95;;;1.70;;
19285;SDS011;9776;50.798;6.430;2022-08-03T04:08:55;1.60;;;1.50;;
19285;SDS011;9776;50.798;6.430;2022-08-03T04:11:39;1.50;;;1.40;;
19285;SDS011;9776;50.798;6.430;2022-08-03T04:14:11;1.30;;;1.20;;
19285;SDS011;9776;50.798;6.430;2022-08-03T04:16:42;7.80;;;1.60;;
19285;SDS011;9776;50.798;6.430;2022-08-03T04:19:13;1.20;;;1.20;;
19285;SDS011;9776;50.798;6.430;2022-08-03T04:21:46;1.67;;;1.40;;
19285;SDS011;9776;50.798;6.430;2022-08-03T04:24:15;2.78;;;1.50;;
19285;SDS011;9776;50.798;6.430;2022-08-03T04:26:43;1.40;;;1.30;;
19285;SDS011;9776;50.798;6.430;2022-08-03T04:29:14;1.23;;;1.13;;
19285;SDS011;9776;50.798;6.430;2022-08-03T04:31:42;1.65;;;1.55;;
19285;SDS011;9776;50.798;6.430;2022-08-03T04:34:12;1.60;;;1.50;;
19285;SDS011;9776;50.798;6.430;2022-08-03T04:36:39;1.60;;;1.50;;
19285;SDS011;9776;50.798;6.430;2022-08-03T04:39:15;1.90;;;1.40;;
19285;SDS011;9776;50.798;6.430;2022-08-03T04:41:49;2.67;;;1.50;;
19285;SDS011;9776;50.798;6.430;2022-08-03T04:44:20;1.60;;;1.50;;
19285;SDS011;9776;50.798;6.430;2022-08-03T04:46:49;1.48;;;1.38;;
19285;SDS011;9776;50.798;6.430;2022-08-03T04:49:19;1.23;;;1.20;;
19285;SDS011;9776;50.798;6.430;2022-08-03T04:51:46;1.35;;;1.20;;
19285;SDS011;9776;50.798;6.430;2022-08-03T04:54:14;1.42;;;1.33;;
19285;SDS011;9776;50.798;6.430;2022-08-03T04:56:41;1.77;;;1.67;;
19285;SDS011;9776;50.798;6.430;2022-08-03T04:59:09;1.25;;;1.20;;
19285;SDS011;9776;50.798;6.430;2022-08-03T05:01:38;1.40;;;1.40;;
19285;SDS011;9776;50.798;6.430;2022-08-03T05:04:04;1.30;;;1.20;;
19285;SDS011;9776;50.798;6.430;2022-08-03T05:06:31;1.30;;;1.10;;
19285;SDS011;9776;50.798;6.430;2022-08-03T05:08:58;1.60;;;1.50;;
19285;SDS011;9776;50.798;6.430;2022-08-03T05:11:25;2.13;;;1.40;;
19285;SDS011;9776;50.798;6.430;2022-08-03T05:13:51;2.67;;;1.25;;
19285;SDS011;9776;50.798;6.430;2022-08-03T05:16:18;1.42;;;1.33;;
19285;SDS011;9776;50.798;6.430;2022-08-03T05:18:46;1.48;;;1.38;;
19285;SDS011;9776;50.798;6.430;2022-08-03T05:21:13;1.20;;;1.20;;
19285;SDS011;9776;50.798;6.430;2022-08-03T05:23:40;2.17;;;1.50;;
19285;SDS011;9776;50.798;6.430;2022-08-03T05:26:07;1.60;;;1.50;;
19285;SDS011;9776;50.798;6.430;2022-08-03T05:28:35;1.52;;;1.40;;
19285;SDS011;9776;50.798;6.430;2022-08-03T05:31:02;1.50;;;1.40;;
19285;SDS011;9776;50.798;6.430;2022-08-03T05:33:29;1.13;;;1.02;;
19285;SDS011;9776;50.798;6.430;2022-08-03T05:35:57;1.45;;;1.38;;
19285;SDS011;9776;50.798;6.430;2022-08-03T05:38:25;1.65;;;1.30;;
19285;SDS011;9776;50.798;6.430;2022-08-03T05:40:51;1.63;;;1.20;;
19285;SDS011;9776;50.798;6.430;2022-08-03T05:43:18;1.48;;;1.38;;
19285;SDS011;9776;50.798;6.430;2022-08-03T05:45:45;1.15;;;1.15;;
19285;SDS011;9776;50.798;6.430;2022-08-03T05:48:12;1.60;;;1.50;;
19285;SDS011;9776;50.798;6.430;2022-08-03T05:50:39;1.65;;;1.55;;
19285;SDS011;9776;50.798;6.430;2022-08-03T05:53:07;1.70;;;1.60;;
19285;SDS011;9776;50.798;6.430;2022-08-03T05:55:34;1.60;;;1.50;;
19285;SDS011;9776;50.798;6.430;2022-08-03T05:58:01;1.60;;;1.50;;
19285;SDS011;9776;50.798;6.430;2022-08-03T06:00:28;1.40;;;1.30;;
19285;SDS011;9776;50.798;6.430;2022-08-03T06:02:54;1.33;;;1.30;;
19285;SDS011;9776;50.798;6.430;2022-08-03T06:05:21;2.78;;;1.17;;
19285;SDS011;9776;50.798;6.430;2022-08-03T06:07:51;1.05;;;1.05;;
19285;SDS011;9776;50.798;6.430;2022-08-03T06:10:19;1.15;;;1.15;;
19285;SDS011;9776;50.798;6.430;2022-08-03T06:12:46;1.88;;;1.20;;
19285;SDS011;9776;50.798;6.430;2022-08-03T06:15:13;0.80;;;0.80;;
19285;SDS011;9776;50.798;6.430;2022-08-03T06:17:43;1.40;;;1.08;;
19285;SDS011;9776;50.798;6.430;2022-08-03T06:20:11;1.35;;;1.25;;
19285;SDS011;9776;50.798;6.430;2022-08-03T06:22:38;1.10;;;1.10;;
19285;SDS011;9776;50.798;6.430;2022-08-03T06:25:05;0.98;;;0.98;;
19285;SDS011;9776;50.798;6.430;2022-08-03T06:27:33;1.27;;;1.27;;
19285;SDS011;9776;50.798;6.430;2022-08-03T06:30:04;1.20;;;1.10;;
19285;SDS011;9776;50.798;6.430;2022-08-03T06:32:32;1.48;;;0.98;;
19285;SDS011;9776;50.798;6.430;2022-08-03T06:34:59;1.05;;;1.02;;
19285;SDS011;9776;50.798;6.430;2022-08-03T06:37:25;1.20;;;1.10;;
19285;SDS011;9776;50.798;6.430;2022-08-03T06:39:53;0.90;;;0.90;;
19285;SDS011;9776;50.798;6.430;2022-08-03T06:42:19;1.10;;;1.00;;
19285;SDS011;9776;50.798;6.430;2022-08-03T06:44:48;0.98;;;0.98;;
19285;SDS011;9776;50.798;6.430;2022-08-03T06:47:15;0.80;;;0.80;;
19285;SDS011;9776;50.798;6.430;2022-08-03T06:49:42;1.88;;;1.17;;
19285;SDS011;9776;50.798;6.430;2022-08-03T06:52:09;1.25;;;1.00;;
19285;SDS011;9776;50.798;6.430;2022-08-03T06:54:35;1.35;;;0.98;;
19285;SDS011;9776;50.798;6.430;2022-08-03T06:57:03;0.88;;;0.88;;
19285;SDS011;9776;50.798;6.430;2022-08-03T06:59:32;0.80;;;0.80;;
19285;SDS011;9776;50.798;6.430;2022-08-03T07:02:00;0.90;;;0.90;;
19285;SDS011;9776;50.798;6.430;2022-08-03T07:04:27;0.85;;;0.82;;
19285;SDS011;9776;50.798;6.430;2022-08-03T07:06:53;1.02;;;0.90;;
19285;SDS011;9776;50.798;6.430;2022-08-03T07:09:20;0.85;;;0.85;;
19285;SDS011;9776;50.798;6.430;2022-08-03T07:11:47;1.10;;;1.00;;
19285;SDS011;9776;50.798;6.430;2022-08-03T07:14:14;2.10;;;1.35;;
19285;SDS011;9776;50.798;6.430;2022-08-03T07:16:40;2.05;;;1.50;;
19285;SDS011;9776;50.798;6.430;2022-08-03T07:19:08;2.00;;;1.40;;
19285;SDS011;9776;50.798;6.430;2022-08-03T07:21:36;1.60;;;1.33;;
19285;SDS011;9776;50.798;6.430;2022-08-03T07:24:03;1.40;;;1.17;;
19285;SDS011;9776;50.798;6.430;2022-08-03T07:26:31;1.83;;;1.23;;
19285;SDS011;9776;50.798;6.430;2022-08-03T07:28:57;1.50;;;1.10;;
19285;SDS011;9776;50.798;6.430;2022-08-03T07:31:25;1.20;;;1.10;;
19285;SDS011;9776;50.798;6.430;2022-08-03T07:33:52;2.45;;;1.38;;
19285;SDS011;9776;50.798;6.430;2022-08-03T07:36:20;1.20;;;1.10;;
19285;SDS011;9776;50.798;6.430;2022-08-03T07:38:48;1.65;;;1.20;;
19285;SDS011;9776;50.798;6.430;2022-08-03T07:41:15;1.15;;;0.88;;
19285;SDS011;9776;50.798;6.430;2022-08-03T07:43:42;1.13;;;1.02;;
19285;SDS011;9776;50.798;6.430;2022-08-03T07:46:09;1.23;;;1.13;;
19285;SDS011;9776;50.798;6.430;2022-08-03T07:48:35;1.00;;;0.90;;
19285;SDS011;9776;50.798;6.430;2022-08-03T07:51:02;0.98;;;0.88;;
19285;SDS011;9776;50.798;6.430;2022-08-03T07:53:31;2.67;;;0.80;;
19285;SDS011;9776;50.798;6.430;2022-08-03T07:55:58;1.17;;;0.70;;
19285;SDS011;9776;50.798;6.430;2022-08-03T07:58:24;0.88;;;0.88;;
19285;SDS011;9776;50.798;6.430;2022-08-03T08:00:52;0.85;;;0.82;;
19285;SDS011;9776;50.798;6.430;2022-08-03T08:03:19;1.25;;;0.90;;
19285;SDS011;9776;50.798;6.430;2022-08-03T08:05:46;0.63;;;0.63;;
19285;SDS011;9776;50.798;6.430;2022-08-03T08:08:13;1.00;;;0.68;;
19285;SDS011;9776;50.798;6.430;2022-08-03T08:10:41;2.47;;;0.80;;
19285;SDS011;9776;50.798;6.430;2022-08-03T08:13:08;0.60;;;0.60;;
19285;SDS011;9776;50.798;6.430;2022-08-03T08:15:35;1.33;;;0.60;;
19285;SDS011;9776;50.798;6.430;2022-08-03T08:18:02;2.28;;;0.75;;
19285;SDS011;9776;50.798;6.430;2022-08-03T08:20:30;2.28;;;0.68;;
19285;SDS011;9776;50.798;6.430;2022-08-03T08:22:59;2.30;;;0.70;;
19285;SDS011;9776;50.798;6.430;2022-08-03T08:25:26;0.73;;;0.70;;
19285;SDS011;9776;50.798;6.430;2022-08-03T08:27:55;0.63;;;0.50;;
19285;SDS011;9776;50.798;6.430;2022-08-03T08:30:22;2.17;;;0.57;;
19285;SDS011;9776;50.798;6.430;2022-08-03T08:32:49;0.52;;;0.52;;
19285;SDS011;9776;50.798;6.430;2022-08-03T08:35:16;0.80;;;0.57;;
19285;SDS011;9776;50.798;6.430;2022-08-03T08:37:44;0.60;;;0.60;;
19285;SDS011;9776;50.798;6.430;2022-08-03T08:40:11;0.45;;;0.45;;
19285;SDS011;9776;50.798;6.430;2022-08-03T08:42:38;0.50;;;0.50;;
19285;SDS011;9776;50.798;6.430;2022-08-03T08:45:08;0.57;;;0.50;;
19285;SDS011;9776;50.798;6.430;2022-08-03T08:47:37;0.63;;;0.57;;
19285;SDS011;9776;50.798;6.430;2022-08-03T08:50:06;0.68;;;0.50;;
19285;SDS011;9776;50.798;6.430;2022-08-03T08:52:35;0.50;;;0.50;;
19285;SDS011;9776;50.798;6.430;2022-08-03T08:55:05;0.30;;;0.30;;
19285;SDS011;9776;50.798;6.430;2022-08-03T08:57:35;0.52;;;0.40;;
19285;SDS011;9776;50.798;6.430;2022-08-03T09:00:03;0.55;;;0.40;;
19285;SDS011;9776;50.798;6.430;2022-08-03T09:02:34;0.30;;;0.30;;
19285;SDS011;9776;50.798;6.430;2022-08-03T09:05:02;0.57;;;0.50;;
19285;SDS011;9776;50.798;6.430;2022-08-03T09:07:29;0.45;;;0.40;;
19285;SDS011;9776;50.798;6.430;2022-08-03T09:09:56;0.40;;;0.40;;
19285;SDS011;9776;50.798;6.430;2022-08-03T09:12:23;0.38;;;0.30;;
19285;SDS011;9776;50.798;6.430;2022-08-03T09:14:49;0.35;;;0.35;;
19285;SDS011;9776;50.798;6.430;2022-08-03T09:17:16;0.80;;;0.40;;
19285;SDS011;9776;50.798;6.430;2022-08-03T09:19:47;0.55;;;0.40;;
19285;SDS011;9776;50.798;6.430;2022-08-03T09:22:30;0.57;;;0.43;;
19285;SDS011;9776;50.798;6.430;2022-08-03T09:24:58;0.40;;;0.40;;
19285;SDS011;9776;50.798;6.430;2022-08-03T09:27:25;0.40;;;0.40;;
19285;SDS011;9776;50.798;6.430;2022-08-03T09:29:52;1.95;;;0.60;;
19285;SDS011;9776;50.798;6.430;2022-08-03T09:32:20;0.60;;;0.40;;
19285;SDS011;9776;50.798;6.430;2022-08-03T09:34:50;0.40;;;0.40;;
19285;SDS011;9776;50.798;6.430;2022-08-03T09:37:18;0.43;;;0.43;;
19285;SDS011;9776;50.798;6.430;2022-08-03T09:43:13;0.77;;;0.77;;
19285;SDS011;9776;50.798;6.430;2022-08-03T09:45:39;1.25;;;1.02;;
19285;SDS011;9776;50.798;6.430;2022-08-03T09:48:21;0.75;;;0.75;;
19285;SDS011;9776;50.798;6.430;2022-08-03T09:50:52;1.80;;;0.60;;
19285;SDS011;9776;50.798;6.430;2022-08-03T09:53:20;0.60;;;0.60;;
19285;SDS011;9776;50.798;6.430;2022-08-03T09:55:52;0.50;;;0.50;;
19285;SDS011;9776;50.798;6.430;2022-08-03T09:58:20;0.50;;;0.50;;
19285;SDS011;9776;50.798;6.430;2022-08-03T10:00:51;0.45;;;0.43;;
19285;SDS011;9776;50.798;6.430;2022-08-03T10:03:19;0.50;;;0.50;;
19285;SDS011;9776;50.798;6.430;2022-08-03T10:05:46;0.55;;;0.55;;
19285;SDS011;9776;50.798;6.430;2022-08-03T10:08:14;0.50;;;0.50;;
19285;SDS011;9776;50.798;6.430;2022-08-03T10:10:42;0.47;;;0.47;;
19285;SDS011;9776;50.798;6.430;2022-08-03T10:13:10;0.50;;;0.50;;
19285;SDS011;9776;50.798;6.430;2022-08-03T10:15:38;0.50;;;0.50;;
19285;SDS011;9776;50.798;6.430;2022-08-03T10:18:05;0.50;;;0.47;;
19285;SDS011;9776;50.798;6.430;2022-08-03T10:20:34;0.63;;;0.52;;
19285;SDS011;9776;50.798;6.430;2022-08-03T10:23:03;0.40;;;0.40;;
19285;SDS011;9776;50.798;6.430;2022-08-03T10:25:32;0.40;;;0.40;;
19285;SDS011;9776;50.798;6.430;2022-08-03T10:28:01;0.50;;;0.45;;
19285;SDS011;9776;50.798;6.430;2022-08-03T10:30:29;0.68;;;0.50;;
19285;SDS011;9776;50.798;6.430;2022-08-03T10:32:58;0.95;;;0.40;;
19285;SDS011;9776;50.798;6.430;2022-08-03T10:35:28;0.40;;;0.40;;
19285;SDS011;9776;50.798;6.430;2022-08-03T10:37:57;0.35;;;0.35;;
19285;SDS011;9776;50.798;6.430;2022-08-03T10:40:25;0.73;;;0.40;;
19285;SDS011;9776;50.798;6.430;2022-08-03T10:42:58;0.40;;;0.40;;
19285;SDS011;9776;50.798;6.430;2022-08-03T10:45:33;0.35;;;0.32;;
19285;SDS011;9776;50.798;6.430;2022-08-03T10:48:06;1.30;;;0.30;;
19285;SDS011;9776;50.798;6.430;2022-08-03T10:50:34;0.90;;;0.38;;
19285;SDS011;9776;50.798;6.430;2022-08-03T10:53:02;0.60;;;0.40;;
19285;SDS011;9776;50.798;6.430;2022-08-03T10:55:32;0.77;;;0.47;;
19285;SDS011;9776;50.798;6.430;2022-08-03T11:01:15;1.52;;;0.40;;
19285;SDS011;9776;50.798;6.430;2022-08-03T11:06:39;0.43;;;0.40;;
19285;SDS011;9776;50.798;6.430;2022-08-03T11:09:16;0.75;;;0.30;;
19285;SDS011;9776;50.798;6.430;2022-08-03T11:11:44;0.32;;;0.32;;
19285;SDS011;9776;50.798;6.430;2022-08-03T11:14:14;0.68;;;0.30;;
19285;SDS011;9776;50.798;6.430;2022-08-03T11:16:43;0.30;;;0.30;;
19285;SDS011;9776;50.798;6.430;2022-08-03T11:19:13;0.32;;;0.32;;
19285;SDS011;9776;50.798;6.430;2022-08-03T11:21:56;0.50;;;0.40;;
19285;SDS011;9776;50.798;6.430;2022-08-03T11:27:29;0.40;;;0.30;;
19285;SDS011;9776;50.798;6.430;2022-08-03T11:30:00;0.55;;;0.40;;
19285;SDS011;9776;50.798;6.430;2022-08-03T11:35:21;0.35;;;0.30;;
19285;SDS011;9776;50.798;6.430;2022-08-03T11:38:02;0.20;;;0.20;;
19285;SDS011;9776;50.798;6.430;2022-08-03T11:40:34;0.57;;;0.40;;
19285;SDS011;9776;50.798;6.430;2022-08-03T11:43:03;0.77;;;0.40;;
19285;SDS011;9776;50.798;6.430;2022-08-03T11:45:32;0.85;;;0.40;;
19285;SDS011;9776;50.798;6.430;2022-08-03T11:48:02;0.30;;;0.30;;
19285;SDS011;9776;50.798;6.430;2022-08-03T11:50:39;0.52;;;0.30;;
19285;SDS011;9776;50.798;6.430;2022-08-03T11:53:11;0.45;;;0.30;;
19285;SDS011;9776;50.798;6.430;2022-08-03T11:55:40;0.50;;;0.30;;
19285;SDS011;9776;50.798;6.430;2022-08-03T11:58:13;0.55;;;0.40;;
19285;SDS011;9776;50.798;6.430;2022-08-03T12:00:42;0.32;;;0.30;;
19285;SDS011;9776;50.798;6.430;2022-08-03T12:03:10;0.30;;;0.30;;
19285;SDS011;9776;50.798;6.430;2022-08-03T12:05:39;0.40;;;0.40;;
19285;SDS011;9776;50.798;6.430;2022-08-03T12:08:11;0.47;;;0.40;;
19285;SDS011;9776;50.798;6.430;2022-08-03T12:10:39;0.38;;;0.32;;
19285;SDS011;9776;50.798;6.430;2022-08-03T12:13:12;1.10;;;0.38;;
19285;SDS011;9776;50.798;6.430;2022-08-03T12:15:39;0.30;;;0.30;;
19285;SDS011;9776;50.798;6.430;2022-08-03T12:18:14;0.40;;;0.40;;
19285;SDS011;9776;50.798;6.430;2022-08-03T12:20:43;0.38;;;0.38;;
19285;SDS011;9776;50.798;6.430;2022-08-03T12:23:10;0.95;;;0.40;;
19285;SDS011;9776;50.798;6.430;2022-08-03T12:25:38;0.40;;;0.40;;
19285;SDS011;9776;50.798;6.430;2022-08-03T12:28:07;0.40;;;0.40;;
19285;SDS011;9776;50.798;6.430;2022-08-03T12:30:36;0.68;;;0.43;;
19285;SDS011;9776;50.798;6.430;2022-08-03T12:36:04;1.25;;;0.50;;
19285;SDS011;9776;50.798;6.430;2022-08-03T12:38:33;0.47;;;0.47;;
19285;SDS011;9776;50.798;6.430;2022-08-03T12:41:02;1.15;;;0.40;;
19285;SDS011;9776;50.798;6.430;2022-08-03T12:43:30;0.50;;;0.50;;
19285;SDS011;9776;50.798;6.430;2022-08-03T12:46:07;0.40;;;0.30;;
19285;SDS011;9776;50.798;6.430;2022-08-03T12:51:55;0.63;;;0.30;;
19285;SDS011;9776;50.798;6.430;2022-08-03T12:54:23;0.30;;;0.30;;
19285;SDS011;9776;50.798;6.430;2022-08-03T12:56:57;0.73;;;0.30;;
19285;SDS011;9776;50.798;6.430;2022-08-03T12:59:26;0.35;;;0.30;;
19285;SDS011;9776;50.798;6.430;2022-08-03T13:01:54;0.85;;;0.45;;
19285;SDS011;9776;50.798;6.430;2022-08-03T13:04:26;1.08;;;0.38;;
19285;SDS011;9776;50.798;6.430;2022-08-03T13:06:57;2.15;;;0.47;;
19285;SDS011;9776;50.798;6.430;2022-08-03T13:09:25;0.40;;;0.40;;
19285;SDS011;9776;50.798;6.430;2022-08-03T13:12:05;0.65;;;0.50;;
19285;SDS011;9776;50.798;6.430;2022-08-03T13:14:33;0.30;;;0.30;;
19285;SDS011;9776;50.798;6.430;2022-08-03T13:17:00;0.35;;;0.35;;
19285;SDS011;9776;50.798;6.430;2022-08-03T13:19:28;0.95;;;0.50;;
19285;SDS011;9776;50.798;6.430;2022-08-03T13:21:56;0.50;;;0.50;;
19285;SDS011;9776;50.798;6.430;2022-08-03T13:24:23;0.80;;;0.80;;
19285;SDS011;9776;50.798;6.430;2022-08-03T13:26:50;1.50;;;0.68;;
19285;SDS011;9776;50.798;6.430;2022-08-03T13:29:17;0.75;;;0.75;;
19285;SDS011;9776;50.798;6.430;2022-08-03T13:31:44;0.75;;;0.75;;
19285;SDS011;9776;50.798;6.430;2022-08-03T13:34:10;0.52;;;0.52;;
19285;SDS011;9776;50.798;6.430;2022-08-03T13:36:38;0.40;;;0.40;;
19285;SDS011;9776;50.798;6.430;2022-08-03T13:39:05;1.38;;;0.63;;
19285;SDS011;9776;50.798;6.430;2022-08-03T13:41:32;1.08;;;0.70;;
19285;SDS011;9776;50.798;6.430;2022-08-03T13:43:59;0.75;;;0.75;;
19285;SDS011;9776;50.798;6.430;2022-08-03T13:46:26;0.60;;;0.60;;
19285;SDS011;9776;50.798;6.430;2022-08-03T13:48:53;0.63;;;0.63;;
19285;SDS011;9776;50.798;6.430;2022-08-03T13:51:20;0.75;;;0.70;;
19285;SDS011;9776;50.798;6.430;2022-08-03T13:53:48;1.92;;;0.77;;
19285;SDS011;9776;50.798;6.430;2022-08-03T13:56:16;0.93;;;0.60;;
19285;SDS011;9776;50.798;6.430;2022-08-03T13:58:43;0.68;;;0.55;;
19285;SDS011;9776;50.798;6.430;2022-08-03T14:01:09;0.65;;;0.60;;
19285;SDS011;9776;50.798;6.430;2022-08-03T14:03:36;1.02;;;0.60;;
19285;SDS011;9776;50.798;6.430;2022-08-03T14:06:03;0.60;;;0.60;;
19285;SDS011;9776;50.798;6.430;2022-08-03T14:08:31;0.60;;;0.60;;
19285;SDS011;9776;50.798;6.430;2022-08-03T14:10:59;1.67;;;0.70;;
19285;SDS011;9776;50.798;6.430;2022-08-03T14:13:26;0.85;;;0.65;;
19285;SDS011;9776;50.798;6.430;2022-08-03T14:15:53;1.10;;;0.70;;
19285;SDS011;9776;50.798;6.430;2022-08-03T14:18:20;0.77;;;0.77;;
19285;SDS011;9776;50.798;6.430;2022-08-03T14:20:47;0.90;;;0.80;;
19285;SDS011;9776;50.798;6.430;2022-08-03T14:23:14;1.13;;;1.13;;
19285;SDS011;9776;50.798;6.430;2022-08-03T14:25:42;1.30;;;1.20;;
19285;SDS011;9776;50.798;6.430;2022-08-03T14:28:14;1.40;;;1.30;;
19285;SDS011;9776;50.798;6.430;2022-08-03T14:30:41;1.25;;;1.20;;
19285;SDS011;9776;50.798;6.430;2022-08-03T14:33:08;2.35;;;1.00;;
19285;SDS011;9776;50.798;6.430;2022-08-03T14:35:34;1.08;;;1.08;;
19285;SDS011;9776;50.798;6.430;2022-08-03T14:38:15;0.88;;;0.88;;
19285;SDS011;9776;50.798;6.430;2022-08-03T14:40:43;1.00;;;0.75;;
19285;SDS011;9776;50.798;6.430;2022-08-03T14:43:10;0.70;;;0.70;;
19285;SDS011;9776;50.798;6.430;2022-08-03T14:45:38;0.70;;;0.70;;
19285;SDS011;9776;50.798;6.430;2022-08-03T14:48:05;1.13;;;0.68;;
19285;SDS011;9776;50.798;6.430;2022-08-03T14:50:32;1.60;;;0.80;;
19285;SDS011;9776;50.798;6.430;2022-08-03T14:52:59;1.27;;;0.55;;
19285;SDS011;9776;50.798;6.430;2022-08-03T14:55:26;0.63;;;0.55;;
19285;SDS011;9776;50.798;6.430;2022-08-03T15:01:16;0.85;;;0.80;;
19285;SDS011;9776;50.798;6.430;2022-08-03T15:03:43;0.80;;;0.80;;
19285;SDS011;9776;50.798;6.430;2022-08-03T15:06:10;0.70;;;0.70;;
19285;SDS011;9776;50.798;6.430;2022-08-03T15:08:37;0.70;;;0.70;;
19285;SDS011;9776;50.798;6.430;2022-08-03T15:11:04;1.02;;;0.70;;
19285;SDS011;9776;50.798;6.430;2022-08-03T15:13:31;1.65;;;0.70;;
19285;SDS011;9776;50.798;6.430;2022-08-03T15:15:57;1.23;;;0.88;;
19285;SDS011;9776;50.798;6.430;2022-08-03T15:18:26;0.80;;;0.80;;
19285;SDS011;9776;50.798;6.430;2022-08-03T15:20:52;1.20;;;0.90;;
19285;SDS011;9776;50.798;6.430;2022-08-03T15:23:19;0.70;;;0.70;;
19285;SDS011;9776;50.798;6.430;2022-08-03T15:25:46;0.82;;;0.70;;
19285;SDS011;9776;50.798;6.430;2022-08-03T15:28:13;0.65;;;0.65;;
19285;SDS011;9776;50.798;6.430;2022-08-03T15:30:40;0.70;;;0.70;;
19285;SDS011;9776;50.798;6.430;2022-08-03T15:33:07;0.65;;;0.65;;
19285;SDS011;9776;50.798;6.430;2022-08-03T15:35:35;0.73;;;0.73;;
19285;SDS011;9776;50.798;6.430;2022-08-03T15:38:02;0.75;;;0.75;;